Terminal Aerodrome Forecast
Issued by NWS St Louis, MO

Home | Current Version | Previous Version | Text Only | Print | Product List | Glossary On
Versions: 1 2 3 4 5 6 7 8 9 10 11 12 13 14 15 16 17 18 19 20 21 22 23
537
FTUS43 KLSX 212320
TAFSTL
TAF
KSTL 212320Z 2200/2306 25008KT P6SM FEW200
     FM221500 25011KT P6SM SKC
     FM230000 25007KT P6SM FEW080
     FM230400 28005KT P6SM BKN150=

USA.gov is the U.S. government's official web portal to all federal, state and local government web resources and services.